Time;durP1;ratioP1;P1;durP2;ratioP2;P2;SDS_P1;SDS_P2;PMS_P1;PMS_P2;Temp;Humidity;BMP_temperature;BMP_pressure;BME280_temperature;BME280_humidity;BME280_pressure;Samples;Min_cycle;Max_cycle;Signal;HPM_P1;HPM_P2
2024/01/20 00:02:27;;;;;;;4.27;2.70;;;2.00;99.90;;;;;;4990117;28;20585;-66
2024/01/20 00:04:54;;;;;;;6.47;3.10;;;2.00;99.90;;;;;;4988886;28;20773;-66
2024/01/20 00:07:21;;;;;;;3.90;2.60;;;2.00;99.90;;;;;;4959623;28;20218;-66
2024/01/20 00:09:48;;;;;;;4.53;2.87;;;2.00;99.90;;;;;;5001757;28;20234;-66
2024/01/20 00:12:15;;;;;;;4.37;2.87;;;2.00;99.90;;;;;;4990297;28;21573;-66
2024/01/20 00:14:41;;;;;;;7.97;3.57;;;1.90;99.90;;;;;;4989202;28;20511;-66
2024/01/20 00:17:08;;;;;;;6.97;3.30;;;1.60;99.90;;;;;;4987678;28;20293;-67
2024/01/20 00:19:37;;;;;;;5.27;3.13;;;2.00;99.90;;;;;;4983702;28;20216;-66
2024/01/20 00:22:04;;;;;;;7.40;3.40;;;1.90;99.90;;;;;;5012012;28;20702;-66
2024/01/20 00:24:31;;;;;;;9.30;4.03;;;2.00;99.90;;;;;;4991466;28;20212;-66
2024/01/20 00:26:58;;;;;;;3.77;2.90;;;0.50;99.90;;;;;;5025281;28;20203;-66
2024/01/20 00:29:25;;;;;;;9.27;3.70;;;;;;;;;;5000061;28;20322;-66
2024/01/20 00:31:52;;;;;;;10.63;4.00;;;1.90;99.90;;;;;;5021159;28;20225;-67
2024/01/20 00:34:20;;;;;;;5.53;3.70;;;1.80;99.90;;;;;;4995873;28;20232;-66
2024/01/20 00:36:48;;;;;;;5.63;4.07;;;1.80;99.90;;;;;;5011963;28;21858;-66
2024/01/20 00:39:15;;;;;;;9.60;4.33;;;;;;;;;;4990478;28;20227;-66
2024/01/20 00:41:42;;;;;;;11.23;4.37;;;1.70;99.90;;;;;;5021750;28;20722;-66
2024/01/20 00:44:09;;;;;;;10.30;4.37;;;1.80;99.90;;;;;;5012225;28;20695;-66
2024/01/20 00:46:36;;;;;;;6.43;3.73;;;1.80;99.90;;;;;;5007543;28;20204;-67
2024/01/20 00:49:03;;;;;;;6.30;4.37;;;2.70;99.90;;;;;;5023508;28;20207;-66
2024/01/20 00:51:29;;;;;;;7.67;4.00;;;2.10;99.90;;;;;;5007457;28;20233;-67
2024/01/20 00:53:58;;;;;;;9.70;4.37;;;1.80;99.90;;;;;;5012940;28;20567;-66
2024/01/20 00:56:25;;;;;;;10.17;4.10;;;1.80;99.90;;;;;;4988166;28;20212;-67
2024/01/20 00:58:51;;;;;;;9.30;4.27;;;1.80;99.90;;;;;;5027194;28;20433;-67
2024/01/20 01:01:18;;;;;;;6.87;4.63;;;1.80;99.90;;;;;;4980480;28;20213;-66
2024/01/20 01:03:45;;;;;;;5.53;4.03;;;1.80;99.90;;;;;;5019502;28;20213;-67
2024/01/20 01:06:12;;;;;;;6.70;4.63;;;1.80;99.90;;;;;;5016357;28;20208;-66
2024/01/20 01:08:39;;;;;;;9.77;4.77;;;1.80;99.90;;;;;;5012737;28;20211;-66
2024/01/20 01:11:07;;;;;;;8.27;5.13;;;1.80;99.90;;;;;;4990702;28;20235;-66
2024/01/20 01:13:37;;;;;;;7.70;4.83;;;1.80;99.90;;;;;;5018016;28;20422;-66
2024/01/20 01:16:04;;;;;;;12.80;4.23;;;1.80;99.90;;;;;;5010646;28;20303;-67
2024/01/20 01:18:31;;;;;;;5.80;4.50;;;1.80;99.90;;;;;;5007163;28;20240;-66
2024/01/20 01:20:58;;;;;;;13.90;5.63;;;;;;;;;;5006899;28;20271;-66
2024/01/20 01:23:25;;;;;;;8.37;5.13;;;1.30;99.90;;;;;;5012717;28;20201;-66
2024/01/20 01:25:53;;;;;;;6.73;4.67;;;1.70;99.90;;;;;;4988425;28;20236;-66
2024/01/20 01:28:22;;;;;;;9.33;4.97;;;1.70;99.90;;;;;;5024928;28;20208;-67
2024/01/20 01:30:49;;;;;;;9.60;4.90;;;1.80;99.90;;;;;;5010240;28;20714;-66
2024/01/20 01:33:16;;;;;;;12.73;5.27;;;1.80;99.90;;;;;;5011645;28;20209;-66
2024/01/20 01:35:43;;;;;;;7.10;4.97;;;;;;;;;;5006390;28;20201;-66
2024/01/20 01:38:10;;;;;;;6.63;5.13;;;1.70;99.90;;;;;;5023727;28;20203;-66
2024/01/20 01:40:37;;;;;;;11.80;5.20;;;1.20;99.90;;;;;;4998290;28;20209;-66
2024/01/20 01:43:04;;;;;;;10.07;4.90;;;1.60;99.90;;;;;;5004569;28;20202;-66
2024/01/20 01:45:34;;;;;;;10.17;5.87;;;1.80;99.90;;;;;;5020788;28;20207;-66
2024/01/20 01:48:01;;;;;;;6.17;4.80;;;1.70;99.90;;;;;;5001602;28;20223;-67
2024/01/20 01:50:28;;;;;;;9.50;4.97;;;1.70;99.90;;;;;;5018163;28;20220;-66
2024/01/20 01:52:55;;;;;;;9.43;5.60;;;1.70;99.90;;;;;;5007646;28;20248;-66
2024/01/20 01:55:23;;;;;;;8.93;5.63;;;1.70;99.90;;;;;;5008099;28;20255;-66
2024/01/20 01:57:52;;;;;;;10.80;6.37;;;1.60;99.90;;;;;;4986519;28;20219;-66
2024/01/20 02:00:19;;;;;;;9.00;5.70;;;1.40;99.90;;;;;;5019653;28;20212;-66
2024/01/20 02:02:47;;;;;;;8.77;5.17;;;1.70;99.90;;;;;;5000034;28;21946;-66
2024/01/20 02:05:14;;;;;;;15.17;6.30;;;1.70;99.90;;;;;;5027221;28;20209;-66
2024/01/20 02:07:44;;;;;;;10.00;6.23;;;1.70;99.90;;;;;;4999120;28;20256;-66
2024/01/20 02:10:11;;;;;;;10.73;5.83;;;1.70;99.90;;;;;;5023645;28;20228;-66
2024/01/20 02:12:40;;;;;;;11.47;6.47;;;1.70;99.90;;;;;;4974554;28;20315;-66
2024/01/20 02:15:08;;;;;;;8.57;6.10;;;1.70;99.90;;;;;;5020170;28;20254;-66
2024/01/20 02:17:35;;;;;;;8.30;5.70;;;1.70;99.90;;;;;;5009342;28;20842;-66
2024/01/20 02:20:03;;;;;;;6.60;5.37;;;1.60;99.90;;;;;;5011680;28;20484;-66
2024/01/20 02:22:32;;;;;;;14.10;6.07;;;1.70;99.90;;;;;;5010485;28;20209;-66
2024/01/20 02:24:58;;;;;;;9.27;5.77;;;1.70;99.90;;;;;;5023871;28;20212;-66
2024/01/20 02:27:25;;;;;;;11.33;6.87;;;1.80;99.90;;;;;;4989003;28;20207;-66
2024/01/20 02:29:52;;;;;;;10.83;5.80;;;1.70;99.90;;;;;;5008265;28;20230;-66
2024/01/20 02:32:19;;;;;;;12.07;5.83;;;1.70;99.90;;;;;;5010300;28;20246;-66
2024/01/20 02:34:46;;;;;;;10.10;6.27;;;2.00;99.90;;;;;;5009287;28;20207;-66
2024/01/20 02:37:13;;;;;;;11.03;6.70;;;1.70;99.90;;;;;;5010735;28;20305;-66
2024/01/20 02:39:41;;;;;;;9.23;6.73;;;1.70;99.90;;;;;;5011150;28;20205;-66
2024/01/20 02:42:09;;;;;;;9.27;6.57;;;1.60;99.90;;;;;;4989752;28;20902;-66
2024/01/20 02:44:36;;;;;;;16.00;7.03;;;;;;;;;;5013489;28;20202;-67
2024/01/20 02:47:04;;;;;;;10.17;7.23;;;1.50;99.90;;;;;;5017403;28;20201;-66
2024/01/20 02:49:31;;;;;;;13.17;6.77;;;1.60;99.90;;;;;;5012615;28;20331;-66
2024/01/20 02:51:58;;;;;;;9.73;6.73;;;1.50;99.90;;;;;;4995577;28;20964;-66
2024/01/20 02:54:24;;;;;;;9.53;6.30;;;1.50;99.90;;;;;;5009947;28;20225;-66
2024/01/20 02:56:53;;;;;;;11.20;8.07;;;1.50;99.90;;;;;;5009000;28;20193;-67
2024/01/20 02:59:20;;;;;;;11.10;7.57;;;1.50;99.90;;;;;;4979186;28;20224;-66
2024/01/20 03:01:46;;;;;;;11.20;7.37;;;1.50;99.90;;;;;;5014543;28;20204;-66
2024/01/20 03:04:14;;;;;;;13.23;7.73;;;1.40;99.90;;;;;;5010975;28;20208;-66
2024/01/20 03:06:41;;;;;;;10.67;7.33;;;1.40;99.90;;;;;;5011905;28;20204;-66
2024/01/20 03:09:08;;;;;;;18.60;8.50;;;0.70;99.90;;;;;;5009789;28;20693;-66
2024/01/20 03:11:35;;;;;;;12.50;8.20;;;1.40;99.90;;;;;;5018348;28;20225;-66
2024/01/20 03:14:04;;;;;;;12.90;7.27;;;1.40;99.90;;;;;;4980214;28;21383;-67
2024/01/20 03:16:30;;;;;;;13.77;8.23;;;1.50;99.90;;;;;;5018278;28;20206;-66
2024/01/20 03:18:57;;;;;;;15.23;8.73;;;1.50;99.90;;;;;;5014299;28;20279;-66
2024/01/20 03:21:24;;;;;;;11.53;7.60;;;1.50;99.90;;;;;;4997094;28;20385;-66
2024/01/20 03:23:53;;;;;;;13.30;7.93;;;1.50;99.90;;;;;;5016774;28;20215;-66
2024/01/20 03:26:21;;;;;;;16.30;8.00;;;1.50;99.90;;;;;;4998045;28;20209;-67
2024/01/20 03:28:47;;;;;;;10.60;8.17;;;1.50;99.90;;;;;;5004861;28;20272;-66
2024/01/20 03:31:16;;;;;;;14.37;7.87;;;1.40;99.90;;;;;;4962307;28;20235;-66
2024/01/20 03:33:43;;;;;;;14.70;9.17;;;1.40;99.90;;;;;;5017850;28;20215;-66
2024/01/20 03:36:10;;;;;;;11.47;8.17;;;1.40;99.90;;;;;;5004711;28;20243;-66
2024/01/20 03:38:37;;;;;;;14.53;8.07;;;1.40;99.90;;;;;;5009148;28;20208;-66
2024/01/20 03:41:04;;;;;;;10.90;8.13;;;1.40;99.90;;;;;;4999226;28;20208;-66
2024/01/20 03:43:31;;;;;;;14.37;8.33;;;1.30;99.90;;;;;;5014629;28;20210;-66
2024/01/20 03:45:58;;;;;;;15.77;8.47;;;;;;;;;;4967699;28;20214;-67
2024/01/20 03:48:26;;;;;;;15.20;8.47;;;1.30;99.90;;;;;;5010395;28;20205;-66
2024/01/20 03:50:53;;;;;;;14.20;8.93;;;1.40;99.90;;;;;;5007997;28;20303;-67
2024/01/20 03:53:20;;;;;;;12.90;8.37;;;1.30;99.90;;;;;;4996873;28;20211;-66
2024/01/20 03:55:47;;;;;;;10.50;7.67;;;1.20;99.90;;;;;;5021777;28;20244;-66
2024/01/20 03:58:14;;;;;;;16.03;8.60;;;1.30;99.90;;;;;;4994086;28;20288;-66
2024/01/20 04:00:43;;;;;;;10.90;7.97;;;1.40;99.90;;;;;;4985590;28;20212;-66
2024/01/20 04:03:10;;;;;;;13.97;8.37;;;1.30;99.90;;;;;;5005134;28;20701;-66
2024/01/20 04:05:39;;;;;;;12.60;8.97;;;1.20;99.90;;;;;;5007512;28;20291;-66
2024/01/20 04:08:06;;;;;;;16.73;8.20;;;1.30;99.90;;;;;;4993488;28;20665;-66
2024/01/20 04:10:33;;;;;;;10.87;8.67;;;1.60;99.90;;;;;;5013025;28;25649;-67
2024/01/20 04:13:00;;;;;;;14.60;8.47;;;1.30;99.90;;;;;;4995719;28;20345;-66
2024/01/20 04:15:27;;;;;;;14.17;8.07;;;0.90;99.90;;;;;;4985660;28;20284;-67
2024/01/20 04:17:54;;;;;;;13.10;8.73;;;1.30;99.90;;;;;;5007321;28;20887;-66
2024/01/20 04:20:21;;;;;;;15.20;9.00;;;2.10;99.90;;;;;;5020138;28;20709;-66
2024/01/20 04:22:49;;;;;;;10.73;7.77;;;1.30;99.90;;;;;;5005110;28;20826;-66
2024/01/20 04:25:17;;;;;;;11.77;7.60;;;1.00;99.90;;;;;;5008421;28;20215;-66
2024/01/20 04:27:44;;;;;;;12.57;8.10;;;1.20;99.90;;;;;;5002868;28;20354;-66
2024/01/20 04:30:12;;;;;;;13.70;8.30;;;1.20;99.90;;;;;;5020648;28;20211;-66
2024/01/20 04:32:39;;;;;;;11.03;7.83;;;1.20;99.90;;;;;;4985779;28;20226;-66
2024/01/20 04:35:07;;;;;;;13.90;8.40;;;1.20;99.90;;;;;;5018120;28;20201;-66
2024/01/20 04:37:34;;;;;;;14.50;8.53;;;1.20;99.90;;;;;;5005670;28;20948;-66
2024/01/20 04:40:03;;;;;;;12.67;8.20;;;1.20;99.90;;;;;;5007883;28;20225;-66
2024/01/20 04:42:29;;;;;;;14.37;8.17;;;1.20;99.90;;;;;;5013466;28;20745;-66
2024/01/20 04:44:56;;;;;;;12.70;8.30;;;1.20;99.90;;;;;;5005001;28;20212;-66
2024/01/20 04:47:24;;;;;;;20.53;8.27;;;;;;;;;;4974775;28;20208;-66
2024/01/20 04:49:53;;;;;;;18.20;8.83;;;1.30;99.90;;;;;;5022426;28;20320;-66
2024/01/20 04:52:21;;;;;;;11.00;7.80;;;1.30;99.90;;;;;;5022575;28;20295;-66
2024/01/20 04:54:48;;;;;;;16.27;8.53;;;1.30;99.90;;;;;;5010043;28;20214;-66
2024/01/20 04:57:16;;;;;;;13.17;8.20;;;1.30;99.90;;;;;;5011769;28;20203;-66
2024/01/20 04:59:43;;;;;;;13.97;8.70;;;0.80;99.90;;;;;;5008355;28;20578;-66
2024/01/20 05:02:10;;;;;;;14.20;8.30;;;1.00;99.90;;;;;;5009610;28;20232;-66
2024/01/20 05:04:37;;;;;;;14.90;8.53;;;1.70;99.90;;;;;;4977039;28;20248;-66
2024/01/20 05:07:04;;;;;;;13.03;8.43;;;1.30;99.90;;;;;;5021724;28;20212;-66
2024/01/20 05:09:31;;;;;;;17.07;9.37;;;0.60;99.90;;;;;;5007733;28;20207;-66
2024/01/20 05:11:58;;;;;;;18.63;8.27;;;1.40;99.90;;;;;;5013615;28;20578;-66
2024/01/20 05:14:26;;;;;;;17.33;9.63;;;1.20;99.90;;;;;;5017039;28;20311;-66
2024/01/20 05:16:53;;;;;;;13.43;8.90;;;1.20;99.90;;;;;;5012690;28;20208;-66
2024/01/20 05:19:20;;;;;;;19.37;8.70;;;;;;;;;;4988654;28;20215;-66
2024/01/20 05:21:47;;;;;;;13.27;8.23;;;1.20;99.90;;;;;;5018819;28;20243;-66
2024/01/20 05:24:14;;;;;;;12.17;8.60;;;1.20;99.90;;;;;;5019251;28;20203;-66
2024/01/20 05:26:41;;;;;;;13.70;9.83;;;1.80;99.90;;;;;;4995472;28;20901;-66
2024/01/20 05:29:07;;;;;;;15.63;9.40;;;1.20;99.90;;;;;;5026397;28;20207;-66
2024/01/20 05:31:36;;;;;;;20.50;10.47;;;0.90;99.90;;;;;;4998714;28;20267;-66
2024/01/20 05:34:03;;;;;;;13.63;9.10;;;1.10;99.90;;;;;;4982675;28;20815;-66
2024/01/20 05:36:29;;;;;;;16.07;9.20;;;1.20;99.90;;;;;;5024093;28;20676;-66
2024/01/20 05:38:56;;;;;;;16.10;8.67;;;1.10;99.90;;;;;;5022050;28;20678;-66
2024/01/20 05:41:23;;;;;;;17.03;8.67;;;1.20;99.90;;;;;;5015675;28;20307;-66
2024/01/20 05:43:50;;;;;;;17.90;9.03;;;1.10;99.90;;;;;;5006958;28;20221;-66
2024/01/20 05:46:19;;;;;;;14.43;9.27;;;0.90;99.90;;;;;;5009293;28;20204;-66
2024/01/20 05:48:48;;;;;;;13.17;9.17;;;1.10;99.90;;;;;;4984500;28;20214;-66
2024/01/20 05:51:15;;;;;;;11.77;9.03;;;;;;;;;;5018034;28;21152;-66
2024/01/20 05:53:42;;;;;;;21.23;11.00;;;1.00;99.90;;;;;;5021113;28;20235;-66
2024/01/20 05:56:09;;;;;;;17.53;10.57;;;1.30;99.90;;;;;;5009302;28;20199;-66
2024/01/20 05:58:36;;;;;;;15.80;9.90;;;1.10;99.90;;;;;;5009985;28;20811;-66
2024/01/20 06:01:03;;;;;;;16.33;9.93;;;1.00;99.90;;;;;;5007864;28;20732;-67
2024/01/20 06:03:30;;;;;;;13.93;9.53;;;1.10;99.90;;;;;;5005934;28;20218;-66
2024/01/20 06:05:58;;;;;;;20.53;10.47;;;1.00;99.90;;;;;;4982345;28;20223;-66
2024/01/20 06:08:25;;;;;;;19.73;10.03;;;1.10;99.90;;;;;;5023043;28;21041;-65
2024/01/20 06:10:52;;;;;;;20.47;11.10;;;1.10;99.90;;;;;;5018185;28;20226;-66
2024/01/20 06:13:19;;;;;;;16.47;9.67;;;1.00;99.90;;;;;;4999218;28;20289;-66
2024/01/20 06:15:46;;;;;;;21.10;9.40;;;0.80;99.90;;;;;;5010479;28;20207;-66
2024/01/20 06:18:13;;;;;;;17.03;9.47;;;1.00;99.90;;;;;;5021887;28;20307;-66
2024/01/20 06:20:40;;;;;;;19.40;10.00;;;1.00;99.90;;;;;;4985899;28;20239;-66
2024/01/20 06:23:08;;;;;;;15.77;9.90;;;1.00;99.90;;;;;;5021235;28;20210;-66
2024/01/20 06:25:35;;;;;;;17.03;9.77;;;0.90;99.90;;;;;;5008499;28;20738;-66
2024/01/20 06:28:03;;;;;;;17.13;9.53;;;0.90;99.90;;;;;;5010462;28;23072;-66
2024/01/20 06:30:30;;;;;;;17.60;9.93;;;;;;;;;;5022266;28;20570;-66
2024/01/20 06:32:57;;;;;;;17.30;9.33;;;0.70;99.90;;;;;;4997658;28;21071;-66
2024/01/20 06:35:24;;;;;;;17.63;10.13;;;0.90;99.90;;;;;;4991037;28;21427;-66
2024/01/20 06:37:51;;;;;;;19.70;11.23;;;;;;;;;;5020011;28;20199;-66
2024/01/20 06:40:20;;;;;;;19.20;11.27;;;0.90;99.90;;;;;;5017783;28;20209;-65
2024/01/20 06:42:47;;;;;;;22.73;11.07;;;0.90;99.90;;;;;;5006891;28;20207;-66
2024/01/20 06:45:14;;;;;;;19.23;10.80;;;0.90;99.90;;;;;;5013614;28;20301;-66
2024/01/20 06:47:40;;;;;;;16.73;9.53;;;0.90;99.90;;;;;;5008656;28;20217;-66
2024/01/20 06:50:08;;;;;;;15.17;9.50;;;0.90;99.90;;;;;;5019506;28;20204;-66
2024/01/20 06:52:35;;;;;;;28.20;11.93;;;0.90;99.90;;;;;;4983413;28;20242;-65
2024/01/20 06:55:03;;;;;;;23.93;11.17;;;;;;;;;;5022902;28;20265;-66
2024/01/20 06:57:32;;;;;;;21.33;11.10;;;0.90;99.90;;;;;;5019320;28;20298;-66
2024/01/20 06:59:58;;;;;;;28.80;10.57;;;0.90;99.90;;;;;;5008738;28;20290;-66
2024/01/20 07:02:25;;;;;;;25.97;11.40;;;0.80;99.90;;;;;;5004449;28;20681;-65
2024/01/20 07:04:52;;;;;;;18.53;10.93;;;0.80;99.90;;;;;;5020126;28;20253;-66
2024/01/20 07:07:19;;;;;;;25.33;11.83;;;0.90;99.90;;;;;;4984683;28;20238;-66
2024/01/20 07:09:46;;;;;;;22.33;11.33;;;0.80;99.90;;;;;;5016486;28;20226;-65
2024/01/20 07:12:13;;;;;;;22.37;11.80;;;0.80;99.90;;;;;;4991976;28;20267;-65
2024/01/20 07:14:43;;;;;;;21.90;11.83;;;0.90;99.90;;;;;;5005827;28;20207;-65
2024/01/20 07:17:10;;;;;;;21.33;11.37;;;0.70;99.90;;;;;;5006099;28;20232;-65
2024/01/20 07:19:37;;;;;;;27.33;11.20;;;0.90;99.90;;;;;;4992014;28;20230;-65
2024/01/20 07:22:04;;;;;;;25.67;11.50;;;0.70;99.90;;;;;;5020025;28;20233;-65
2024/01/20 07:24:31;;;;;;;22.00;11.47;;;0.70;99.90;;;;;;4972998;28;20439;-66
2024/01/20 07:26:57;;;;;;;29.13;11.90;;;0.70;99.90;;;;;;5024677;28;20200;-65
2024/01/20 07:29:25;;;;;;;23.30;11.17;;;1.10;99.90;;;;;;5008683;28;20203;-65
2024/01/20 07:31:54;;;;;;;23.70;11.93;;;0.60;99.90;;;;;;5017210;28;20754;-65
2024/01/20 07:34:21;;;;;;;26.20;11.97;;;0.60;99.90;;;;;;4995175;28;20214;-65
2024/01/20 07:36:48;;;;;;;24.50;11.70;;;0.60;99.90;;;;;;5017297;28;20289;-65
2024/01/20 07:39:15;;;;;;;18.73;10.97;;;0.50;99.90;;;;;;4983500;28;20208;-65
2024/01/20 07:41:42;;;;;;;22.90;11.97;;;0.60;99.90;;;;;;5001698;28;20205;-65
2024/01/20 07:44:09;;;;;;;25.57;12.70;;;0.50;99.90;;;;;;5017777;28;20673;-65
2024/01/20 07:46:36;;;;;;;23.37;12.13;;;1.10;99.90;;;;;;5008039;28;20590;-65
2024/01/20 07:49:04;;;;;;;22.30;10.97;;;0.60;99.90;;;;;;5009956;28;20573;-65
2024/01/20 07:51:31;;;;;;;24.57;11.80;;;;;;;;;;5009124;28;20190;-65
2024/01/20 07:53:58;;;;;;;23.33;10.97;;;0.60;99.90;;;;;;4992315;28;20233;-65
2024/01/20 07:56:25;;;;;;;23.30;12.17;;;0.50;99.90;;;;;;5006629;28;20201;-65
2024/01/20 07:58:51;;;;;;;23.13;11.20;;;0.60;99.90;;;;;;5020614;28;20770;-65
2024/01/20 08:01:18;;;;;;;26.10;11.47;;;1.00;99.90;;;;;;5006873;28;20210;-65
2024/01/20 08:03:45;;;;;;;28.53;11.97;;;0.50;99.90;;;;;;5016222;28;20962;-66
2024/01/20 08:06:14;;;;;;;25.63;11.10;;;0.50;99.90;;;;;;5007008;28;20202;-65
2024/01/20 08:08:41;;;;;;;25.23;11.43;;;0.50;99.90;;;;;;5016297;28;20225;-65
2024/01/20 08:11:07;;;;;;;27.30;10.93;;;0.50;99.90;;;;;;4992373;28;20222;-65
2024/01/20 08:13:34;;;;;;;23.00;11.83;;;0.60;99.90;;;;;;5003542;28;20238;-65
2024/01/20 08:16:01;;;;;;;28.90;12.60;;;2.20;99.90;;;;;;5009040;28;20201;-65
2024/01/20 08:18:28;;;;;;;21.87;10.70;;;0.50;99.90;;;;;;5020092;28;20212;-65
2024/01/20 08:20:55;;;;;;;19.90;10.90;;;0.50;99.90;;;;;;5006053;28;20243;-65
2024/01/20 08:23:23;;;;;;;22.80;10.97;;;0.70;99.90;;;;;;5015772;28;20270;-65
2024/01/20 08:25:50;;;;;;;23.20;11.00;;;0.60;99.90;;;;;;4985115;28;21689;-65
2024/01/20 08:28:17;;;;;;;20.13;10.60;;;1.60;99.90;;;;;;5009312;28;20206;-64
2024/01/20 08:30:44;;;;;;;19.90;10.27;;;0.60;99.90;;;;;;5005504;28;20500;-65
2024/01/20 08:33:11;;;;;;;20.03;10.80;;;0.60;99.90;;;;;;5023981;28;20873;-65
2024/01/20 08:35:37;;;;;;;22.40;11.00;;;0.60;99.90;;;;;;5011698;28;20694;-64
2024/01/20 08:38:04;;;;;;;19.13;10.33;;;0.70;99.90;;;;;;5022855;28;20571;-65
2024/01/20 08:40:33;;;;;;;21.30;9.87;;;0.60;99.90;;;;;;4991036;28;20210;-64
2024/01/20 08:43:00;;;;;;;23.93;11.13;;;0.70;99.90;;;;;;5021580;28;20206;-64
2024/01/20 08:45:26;;;;;;;19.30;9.90;;;0.80;99.90;;;;;;5011202;28;20293;-64
2024/01/20 08:47:53;;;;;;;18.43;9.53;;;0.70;99.90;;;;;;5009470;28;20208;-65
2024/01/20 08:50:20;;;;;;;21.20;10.60;;;0.70;99.90;;;;;;5015689;28;20196;-65
2024/01/20 08:52:47;;;;;;;19.53;10.57;;;0.80;99.90;;;;;;5005867;28;20226;-64
2024/01/20 08:55:14;;;;;;;20.27;10.53;;;;;;;;;;5009466;28;20236;-65
2024/01/20 08:57:43;;;;;;;22.37;10.67;;;0.80;99.90;;;;;;5002680;28;20344;-65
2024/01/20 09:00:12;;;;;;;20.83;9.53;;;0.80;99.90;;;;;;5016921;28;20654;-64
2024/01/20 09:02:39;;;;;;;19.40;10.00;;;1.80;99.90;;;;;;4981436;28;20250;-64
2024/01/20 09:05:07;;;;;;;21.20;10.37;;;0.80;99.90;;;;;;4997493;28;20245;-65
2024/01/20 09:07:34;;;;;;;25.17;10.30;;;0.80;99.90;;;;;;4981659;28;20217;-65
2024/01/20 09:10:02;;;;;;;22.77;11.30;;;;;;;;;;5011002;28;20456;-64
2024/01/20 09:12:29;;;;;;;19.80;9.13;;;0.90;99.90;;;;;;4987302;28;20469;-65
2024/01/20 09:14:58;;;;;;;20.97;9.33;;;1.70;99.90;;;;;;5002415;28;20337;-65
2024/01/20 09:17:24;;;;;;;22.17;9.43;;;0.90;99.90;;;;;;5007812;28;20203;-65
2024/01/20 09:19:52;;;;;;;16.87;9.60;;;1.00;99.90;;;;;;5004864;28;20238;-65
2024/01/20 09:22:19;;;;;;;19.80;10.30;;;1.00;99.90;;;;;;4970545;28;20218;-65
2024/01/20 09:24:46;;;;;;;24.93;10.50;;;1.00;99.90;;;;;;4975475;28;20242;-65
2024/01/20 09:27:13;;;;;;;21.53;10.23;;;-0.40;99.90;;;;;;4968571;28;20229;-65
2024/01/20 09:29:40;;;;;;;21.87;9.63;;;1.30;99.90;;;;;;4981342;28;20219;-65
2024/01/20 09:32:08;;;;;;;19.10;9.57;;;1.10;99.90;;;;;;4990518;28;20258;-64
2024/01/20 09:34:35;;;;;;;21.13;9.93;;;1.10;99.90;;;;;;4982137;28;20722;-65
2024/01/20 09:37:03;;;;;;;19.37;9.37;;;1.10;99.90;;;;;;4993983;28;20982;-65
2024/01/20 09:39:29;;;;;;;23.80;9.87;;;0.90;99.90;;;;;;4967198;28;20228;-65
2024/01/20 09:41:58;;;;;;;26.47;10.00;;;1.20;99.90;;;;;;4954704;28;20228;-65
2024/01/20 09:44:25;;;;;;;23.53;9.80;;;1.20;99.90;;;;;;4977286;28;20204;-65
2024/01/20 09:46:52;;;;;;;20.53;10.23;;;1.20;99.90;;;;;;4978133;28;20231;-64
2024/01/20 09:49:20;;;;;;;18.13;9.40;;;1.30;99.90;;;;;;4980581;28;20238;-64
2024/01/20 09:51:51;;;;;;;19.37;9.07;;;1.30;99.90;;;;;;4990456;28;21047;-65
2024/01/20 09:54:21;;;;;;;22.97;9.67;;;1.90;99.90;;;;;;4963460;28;20233;-65
2024/01/20 09:56:48;;;;;;;19.60;10.43;;;1.30;99.90;;;;;;4980606;28;20221;-65
2024/01/20 09:59:15;;;;;;;15.33;9.07;;;1.40;99.90;;;;;;4957412;28;20216;-64
2024/01/20 10:01:44;;;;;;;23.97;9.93;;;2.20;99.90;;;;;;4989516;28;20218;-64
2024/01/20 10:04:14;;;;;;;23.03;9.27;;;1.80;99.90;;;;;;4969065;28;20233;-65
2024/01/20 10:06:42;;;;;;;16.67;8.93;;;1.50;99.90;;;;;;4989719;28;20228;-65
2024/01/20 10:09:09;;;;;;;20.93;10.07;;;1.60;99.90;;;;;;4996068;28;20206;-65
2024/01/20 10:11:37;;;;;;;18.60;9.27;;;1.60;99.90;;;;;;4965675;28;20225;-65
2024/01/20 10:14:04;;;;;;;20.83;10.03;;;1.80;99.90;;;;;;4963117;28;20893;-65
2024/01/20 10:16:39;;;;;;;17.53;9.53;;;1.00;99.90;;;;;;4981767;28;20218;-65
2024/01/20 10:19:05;;;;;;;14.90;8.43;;;1.70;99.90;;;;;;4983466;28;20224;-64
2024/01/20 10:21:39;;;;;;;19.80;8.97;;;0.90;99.90;;;;;;4996139;28;21670;-65
2024/01/20 10:24:08;;;;;;;24.13;9.77;;;1.60;99.90;;;;;;4999921;28;20226;-65
2024/01/20 10:26:42;;;;;;;19.17;8.50;;;2.30;99.90;;;;;;4980249;28;21033;-65
2024/01/20 10:29:09;;;;;;;19.13;9.73;;;1.80;99.90;;;;;;4973747;28;20671;-65
2024/01/20 10:31:36;;;;;;;16.13;9.27;;;1.70;99.90;;;;;;4989370;28;20228;-65
2024/01/20 10:34:03;;;;;;;21.07;8.90;;;1.50;99.90;;;;;;4981377;28;20732;-65
2024/01/20 10:36:32;;;;;;;23.27;9.40;;;1.80;99.90;;;;;;4973550;28;20268;-65
2024/01/20 10:39:02;;;;;;;19.53;9.27;;;1.80;99.90;;;;;;5004830;28;20277;-65
2024/01/20 10:41:30;;;;;;;18.23;10.10;;;2.20;99.90;;;;;;4985897;28;20710;-65
2024/01/20 10:44:02;;;;;;;19.63;9.63;;;1.80;99.90;;;;;;4959244;28;20209;-65
2024/01/20 10:46:34;;;;;;;19.93;9.83;;;1.90;99.90;;;;;;5006878;28;20196;-65
2024/01/20 10:49:03;;;;;;;26.23;10.97;;;1.80;99.90;;;;;;4984909;28;20838;-65
2024/01/20 10:51:31;;;;;;;25.43;9.77;;;2.00;99.90;;;;;;4981673;28;20725;-65
2024/01/20 10:53:58;;;;;;;20.33;9.90;;;2.00;99.90;;;;;;5003413;28;20654;-65
2024/01/20 10:56:26;;;;;;;17.47;8.50;;;2.00;99.90;;;;;;4991957;28;20377;-65
2024/01/20 10:59:02;;;;;;;16.57;9.20;;;2.00;99.90;;;;;;4989200;28;20236;-65
2024/01/20 11:01:30;;;;;;;18.07;9.77;;;2.00;99.90;;;;;;4974637;28;20227;-65
2024/01/20 11:03:57;;;;;;;20.60;10.13;;;2.00;99.90;;;;;;4993496;28;20209;-65
2024/01/20 11:06:25;;;;;;;15.80;9.20;;;1.90;99.90;;;;;;4987729;28;20208;-65
2024/01/20 11:08:53;;;;;;;18.83;9.07;;;2.00;99.90;;;;;;5008681;28;20391;-65
2024/01/20 11:11:20;;;;;;;17.33;10.07;;;2.00;99.90;;;;;;5013746;28;20848;-64
2024/01/20 11:13:48;;;;;;;18.47;9.77;;;0.90;99.90;;;;;;4985599;28;20335;-65
2024/01/20 11:16:21;;;;;;;18.30;9.10;;;2.00;99.90;;;;;;4979846;28;20234;-65
2024/01/20 11:18:48;;;;;;;21.33;9.63;;;2.10;99.90;;;;;;4991041;28;20652;-66
2024/01/20 11:21:16;;;;;;;20.17;10.00;;;2.20;99.90;;;;;;5000555;28;20243;-65
2024/01/20 11:23:47;;;;;;;18.17;9.23;;;2.70;99.90;;;;;;4997810;28;20218;-66
2024/01/20 11:26:13;;;;;;;23.63;10.03;;;2.20;99.90;;;;;;5015775;28;20221;-65
2024/01/20 11:28:44;;;;;;;15.33;8.70;;;3.10;99.90;;;;;;4996158;28;20270;-66
2024/01/20 11:31:20;;;;;;;14.73;9.30;;;2.20;99.90;;;;;;4973820;28;20224;-66
2024/01/20 11:33:47;;;;;;;21.43;9.30;;;2.20;99.90;;;;;;5008956;28;20441;-66
2024/01/20 11:36:15;;;;;;;15.50;8.80;;;2.20;99.90;;;;;;5003742;28;20222;-66
2024/01/20 11:38:43;;;;;;;21.43;9.73;;;2.20;99.90;;;;;;5000357;28;20206;-66
2024/01/20 11:41:10;;;;;;;17.17;9.83;;;3.30;99.90;;;;;;5014110;28;20650;-66
2024/01/20 11:43:37;;;;;;;21.10;9.60;;;2.30;99.90;;;;;;4994282;28;20629;-66
2024/01/20 11:46:04;;;;;;;20.33;9.70;;;2.20;99.90;;;;;;4979425;28;20669;-66
2024/01/20 11:48:33;;;;;;;16.20;9.33;;;2.50;99.90;;;;;;5007316;28;20311;-66
2024/01/20 11:51:01;;;;;;;17.40;8.97;;;2.40;99.90;;;;;;5002680;28;20215;-66
2024/01/20 11:53:28;;;;;;;15.57;9.43;;;2.60;99.90;;;;;;5008369;28;20292;-66
2024/01/20 11:55:58;;;;;;;14.17;8.73;;;2.30;99.90;;;;;;5022213;28;20204;-66
2024/01/20 11:58:25;;;;;;;18.30;8.90;;;2.40;99.90;;;;;;5019136;28;20205;-66
2024/01/20 12:00:53;;;;;;;11.17;7.60;;;2.70;99.90;;;;;;4977561;28;20747;-66
2024/01/20 12:03:20;;;;;;;16.00;8.87;;;2.50;99.90;;;;;;5014181;28;20229;-66
2024/01/20 12:05:48;;;;;;;16.37;9.13;;;2.50;99.90;;;;;;5009791;28;20211;-66
2024/01/20 12:08:15;;;;;;;19.40;8.97;;;2.50;99.90;;;;;;5009402;28;20201;-66
2024/01/20 12:10:42;;;;;;;15.40;7.90;;;2.60;99.90;;;;;;5007543;28;20706;-66
2024/01/20 12:13:12;;;;;;;20.70;9.17;;;2.70;99.90;;;;;;5018388;28;20221;-65
2024/01/20 12:15:39;;;;;;;16.57;9.73;;;;;;;;;;5000007;28;20237;-66
2024/01/20 12:18:07;;;;;;;20.40;9.50;;;2.60;99.90;;;;;;4995265;28;20334;-66
2024/01/20 12:20:34;;;;;;;19.90;9.57;;;2.70;99.90;;;;;;5024299;28;20235;-66
2024/01/20 12:23:02;;;;;;;16.80;9.00;;;2.70;99.90;;;;;;5000560;28;20229;-66
2024/01/20 12:25:30;;;;;;;20.03;8.80;;;3.30;99.90;;;;;;5003587;28;20299;-66
2024/01/20 12:27:58;;;;;;;18.03;9.23;;;2.50;99.90;;;;;;5021119;28;20231;-66
2024/01/20 12:30:26;;;;;;;15.63;9.70;;;2.70;99.90;;;;;;4991079;28;20247;-66
2024/01/20 12:32:52;;;;;;;20.77;8.33;;;2.70;99.90;;;;;;4981973;28;20255;-65
2024/01/20 12:35:19;;;;;;;19.53;9.23;;;2.80;99.90;;;;;;5020081;28;20564;-66
2024/01/20 12:37:48;;;;;;;15.33;8.70;;;2.70;99.90;;;;;;5008522;28;20215;-66
2024/01/20 12:40:18;;;;;;;15.83;8.77;;;2.70;99.90;;;;;;5010733;28;20217;-66
2024/01/20 12:42:45;;;;;;;16.67;8.93;;;2.70;99.90;;;;;;5014442;28;20233;-66
2024/01/20 12:45:12;;;;;;;18.53;8.67;;;;;;;;;;4996863;28;20233;-67
2024/01/20 12:47:39;;;;;;;18.60;9.63;;;2.90;99.90;;;;;;4983318;28;20217;-66
2024/01/20 12:50:07;;;;;;;14.50;9.00;;;3.60;99.90;;;;;;5017792;28;20201;-66
2024/01/20 12:52:34;;;;;;;15.03;8.60;;;2.80;99.90;;;;;;5006769;28;20217;-66